D'andre Forward — WDH7100 — position and weather

sailwx.info

Track history (hours):
 
Tides and Currents Weather Stations Pressure Air Temp Water Temp Dewpoint Dewpoint Depression Visibility Wind Speed Wind Dir Waves Ship Positions

D'andre Forward

Owner: Florida Marine, LLC, Mandeville, LA. More information available from US FCC via Universal Licensing System and Coast Guard Vessel Documentation Center.

Last reported at 2017-Nov-17 15:47 UTC. Time now 2017-Nov-17 21:08 UTC.
Position N 29°34' W 090°31'.

Length 24 m; draft 2.6 m.

Type: Other ship. MMSI: 367644790.

Date/timePositionNaut miles runAvg speedWind from/ knotsBaromVisibWave heightAir tempDewpointWater temp
2017-Nov-17 15:47N 29°34' W 090°31'2 6.4
2017-Nov-17 15:30N 29°34' W 090°33'3 6.2
2017-Nov-17 15:00N 29°35' W 090°36'3 6.3
2017-Nov-17 14:30N 29°36' W 090°40'3 5.3
2017-Nov-17 14:00N 29°36' W 090°43'3 5.3
2017-Nov-17 13:31N 29°34' W 090°44'2 3.5
2017-Nov-17 13:01N 29°33' W 090°45'0 0.3
2017-Nov-17 12:31N 29°33' W 090°45'0 0.1
2017-Nov-17 12:00N 29°33' W 090°45'0 0.0
2017-Nov-17 11:31N 29°33' W 090°45'0 0.1
2017-Nov-17 11:00N 29°33' W 090°45'0 0.4
2017-Nov-17 10:30N 29°33' W 090°46'3 5.2
2017-Nov-17 10:01N 29°32' W 090°48'4 6.6
2017-Nov-17 09:25N 29°32' W 090°53'3 6.8
2017-Nov-17 09:00N 29°34' W 090°56'56 5.1
2017-Nov-16 22:04N 29°50' W 091°57'1 6.3
2017-Nov-16 21:59N 29°50' W 091°58'3 6.3
2017-Nov-16 21:29N 29°49' W 092°01'3 6.4
2017-Nov-16 21:00N 29°48' W 092°05'3 6.6
2017-Nov-16 20:31N 29°47' W 092°08'3 6.3
2017-Nov-16 20:01N 29°47' W 092°12'3 5.4
2017-Nov-16 19:30N 29°48' W 092°15'3 6.3
2017-Nov-16 19:01N 29°50' W 092°18'3 6.3
2017-Nov-16 18:28N 29°51' W 092°21'34 5.4
2017-Nov-16 12:08N 29°56' W 093°00'0 0.0
2017-Nov-16 12:00N 29°56' W 093°00'0 0.0
2017-Nov-16 11:30N 29°56' W 093°00'0 0.0
2017-Nov-16 11:00N 29°56' W 093°00'0 0.0
2017-Nov-16 10:30N 29°56' W 093°00'0 0.0
2017-Nov-16 09:58N 29°56' W 093°00'0 0.0
2017-Nov-16 09:31N 29°56' W 093°00'0 0.0
2017-Nov-16 09:00N 29°56' W 093°00'0 0.0
2017-Nov-16 08:30N 29°56' W 093°00'0 0.0
2017-Nov-16 08:00N 29°56' W 093°00'1 2.5
2017-Nov-16 07:30N 29°56' W 093°02'2 4.0
2017-Nov-16 07:00N 29°56' W 093°04'3 5.3
2017-Nov-16 06:30N 29°56' W 093°07'3 5.8
2017-Nov-16 06:00N 29°57' W 093°10'2 4.7
2017-Nov-16 05:31N 29°59' W 093°12'3 5.8
2017-Nov-16 05:01N 30°01' W 093°14'3 5.2
2017-Nov-16 04:30N 30°03' W 093°16'2 4.8
2017-Nov-16 04:01N 30°05' W 093°17'1 1.8
2017-Nov-16 03:30N 30°06' W 093°18'0 0.1
2017-Nov-16 03:00N 30°06' W 093°18'0 0.0
2017-Nov-16 02:31N 30°06' W 093°18'0 0.0
2017-Nov-16 02:01N 30°06' W 093°18'0 0.0
2017-Nov-16 01:31N 30°06' W 093°18'2 3.1
2017-Nov-16 01:00N 30°05' W 093°20'2 4.1
2017-Nov-16 00:30N 30°04' W 093°21'3 5.1
2017-Nov-16 00:00N 30°04' W 093°24'3 6.4
2017-Nov-15 23:31N 30°04' W 093°28'3 6.4
2017-Nov-15 23:00N 30°04' W 093°32'3 6.4
2017-Nov-15 22:30N 30°04' W 093°35'3 6.7
2017-Nov-15 22:00N 30°04' W 093°39'1 0.0
2017-Nov-14 15:59N 30°04' W 093°39'2 3.8
2017-Nov-14 15:22N 30°04' W 093°36'2 4.9
2017-Nov-14 15:00N 30°04' W 093°34'3 5.0
2017-Nov-14 14:30N 30°04' W 093°31'3 5.1
2017-Nov-14 13:59N 30°04' W 093°28'2 5.0
2017-Nov-14 13:30N 30°04' W 093°25'2 4.9
2017-Nov-14 13:00N 30°04' W 093°22'2 3.9
2017-Nov-14 12:31N 30°05' W 093°20'2 3.8
2017-Nov-14 11:53N 30°05' W 093°18'1 1.1
2017-Nov-14 11:25N 30°05' W 093°17'1 1.4
2017-Nov-14 10:51N 30°05' W 093°17'0 0.1
2017-Nov-14 10:29N 30°05' W 093°17'126 3.7
2017-Nov-13 00:49N 29°34' W 090°56'2 5.3
2017-Nov-13 00:22N 29°33' W 090°54'2 5.2
2017-Nov-13 00:00N 29°32' W 090°52'3 5.4
2017-Nov-12 23:30N 29°32' W 090°48'2 4.9
2017-Nov-12 23:00N 29°32' W 090°46'2 4.7
2017-Nov-12 22:30N 29°34' W 090°44'2 4.6
2017-Nov-12 22:00N 29°36' W 090°43'2 3.2
2017-Nov-12 21:31N 29°36' W 090°41'0 0.1
2017-Nov-12 21:01N 29°36' W 090°41'0 0.2
2017-Nov-12 20:30N 29°36' W 090°41'1 2.3
2017-Nov-12 20:01N 29°36' W 090°39'1 2.3
2017-Nov-12 19:31N 29°35' W 090°38'2 3.7
2017-Nov-12 19:00N 29°35' W 090°36'2 4.9
2017-Nov-12 18:30N 29°34' W 090°33'3 5.1
2017-Nov-12 18:00N 29°34' W 090°31'3 5.2
2017-Nov-12 17:28N 29°33' W 090°27'  
Track history (hours):
 
Tides and Currents Weather Stations Pressure Air Temp Water Temp Dewpoint Dewpoint Depression Visibility Wind Speed Wind Dir Waves Ship Positions

D'andre Forward

Owner: Florida Marine, LLC, Mandeville, LA. More information available from US FCC via Universal Licensing System and Coast Guard Vessel Documentation Center.

Last reported at 2017-Nov-17 15:47 UTC. Time now 2017-Nov-17 21:08 UTC.
Position N 29°34' W 090°31'.

Length 24 m; draft 2.6 m.

Type: Other ship. MMSI: 367644790.

Date/timePositionNaut miles runAvg speedWind from/ knotsBaromVisibWave heightAir tempDewpointWater temp
2017-Nov-17 15:47N 29°34' W 090°31'2 6.4
2017-Nov-17 15:30N 29°34' W 090°33'3 6.2
2017-Nov-17 15:00N 29°35' W 090°36'3 6.3
2017-Nov-17 14:30N 29°36' W 090°40'3 5.3
2017-Nov-17 14:00N 29°36' W 090°43'3 5.3
2017-Nov-17 13:31N 29°34' W 090°44'2 3.5
2017-Nov-17 13:01N 29°33' W 090°45'0 0.3
2017-Nov-17 12:31N 29°33' W 090°45'0 0.1
2017-Nov-17 12:00N 29°33' W 090°45'0 0.0
2017-Nov-17 11:31N 29°33' W 090°45'0 0.1
2017-Nov-17 11:00N 29°33' W 090°45'0 0.4
2017-Nov-17 10:30N 29°33' W 090°46'3 5.2
2017-Nov-17 10:01N 29°32' W 090°48'4 6.6
2017-Nov-17 09:25N 29°32' W 090°53'3 6.8
2017-Nov-17 09:00N 29°34' W 090°56'56 5.1
2017-Nov-16 22:04N 29°50' W 091°57'1 6.3
2017-Nov-16 21:59N 29°50' W 091°58'3 6.3
2017-Nov-16 21:29N 29°49' W 092°01'3 6.4
2017-Nov-16 21:00N 29°48' W 092°05'3 6.6
2017-Nov-16 20:31N 29°47' W 092°08'3 6.3
2017-Nov-16 20:01N 29°47' W 092°12'3 5.4
2017-Nov-16 19:30N 29°48' W 092°15'3 6.3
2017-Nov-16 19:01N 29°50' W 092°18'3 6.3
2017-Nov-16 18:28N 29°51' W 092°21'34 5.4
2017-Nov-16 12:08N 29°56' W 093°00'0 0.0
2017-Nov-16 12:00N 29°56' W 093°00'0 0.0
2017-Nov-16 11:30N 29°56' W 093°00'0 0.0
2017-Nov-16 11:00N 29°56' W 093°00'0 0.0
2017-Nov-16 10:30N 29°56' W 093°00'0 0.0
2017-Nov-16 09:58N 29°56' W 093°00'0 0.0
2017-Nov-16 09:31N 29°56' W 093°00'0 0.0
2017-Nov-16 09:00N 29°56' W 093°00'0 0.0
2017-Nov-16 08:30N 29°56' W 093°00'0 0.0
2017-Nov-16 08:00N 29°56' W 093°00'1 2.5
2017-Nov-16 07:30N 29°56' W 093°02'2 4.0
2017-Nov-16 07:00N 29°56' W 093°04'3 5.3
2017-Nov-16 06:30N 29°56' W 093°07'3 5.8
2017-Nov-16 06:00N 29°57' W 093°10'2 4.7
2017-Nov-16 05:31N 29°59' W 093°12'3 5.8
2017-Nov-16 05:01N 30°01' W 093°14'3 5.2
2017-Nov-16 04:30N 30°03' W 093°16'2 4.8
2017-Nov-16 04:01N 30°05' W 093°17'1 1.8
2017-Nov-16 03:30N 30°06' W 093°18'0 0.1
2017-Nov-16 03:00N 30°06' W 093°18'0 0.0
2017-Nov-16 02:31N 30°06' W 093°18'0 0.0
2017-Nov-16 02:01N 30°06' W 093°18'0 0.0
2017-Nov-16 01:31N 30°06' W 093°18'2 3.1
2017-Nov-16 01:00N 30°05' W 093°20'2 4.1
2017-Nov-16 00:30N 30°04' W 093°21'3 5.1
2017-Nov-16 00:00N 30°04' W 093°24'3 6.4
2017-Nov-15 23:31N 30°04' W 093°28'3 6.4
2017-Nov-15 23:00N 30°04' W 093°32'3 6.4
2017-Nov-15 22:30N 30°04' W 093°35'3 6.7
2017-Nov-15 22:00N 30°04' W 093°39'1 0.0
2017-Nov-14 15:59N 30°04' W 093°39'2 3.8
2017-Nov-14 15:22N 30°04' W 093°36'2 4.9
2017-Nov-14 15:00N 30°04' W 093°34'3 5.0
2017-Nov-14 14:30N 30°04' W 093°31'3 5.1
2017-Nov-14 13:59N 30°04' W 093°28'2 5.0
2017-Nov-14 13:30N 30°04' W 093°25'2 4.9
2017-Nov-14 13:00N 30°04' W 093°22'2 3.9
2017-Nov-14 12:31N 30°05' W 093°20'2 3.8
2017-Nov-14 11:53N 30°05' W 093°18'1 1.1
2017-Nov-14 11:25N 30°05' W 093°17'1 1.4
2017-Nov-14 10:51N 30°05' W 093°17'0 0.1
2017-Nov-14 10:29N 30°05' W 093°17'126 3.7
2017-Nov-13 00:49N 29°34' W 090°56'2 5.3
2017-Nov-13 00:22N 29°33' W 090°54'2 5.2
2017-Nov-13 00:00N 29°32' W 090°52'3 5.4
2017-Nov-12 23:30N 29°32' W 090°48'2 4.9
2017-Nov-12 23:00N 29°32' W 090°46'2 4.7
2017-Nov-12 22:30N 29°34' W 090°44'2 4.6
2017-Nov-12 22:00N 29°36' W 090°43'2 3.2
2017-Nov-12 21:31N 29°36' W 090°41'0 0.1
2017-Nov-12 21:01N 29°36' W 090°41'0 0.2
2017-Nov-12 20:30N 29°36' W 090°41'1 2.3
2017-Nov-12 20:01N 29°36' W 090°39'1 2.3
2017-Nov-12 19:31N 29°35' W 090°38'2 3.7
2017-Nov-12 19:00N 29°35' W 090°36'2 4.9
2017-Nov-12 18:30N 29°34' W 090°33'3 5.1
2017-Nov-12 18:00N 29°34' W 090°31'3 5.2
2017-Nov-12 17:28N 29°33' W 090°27'  

Dump ship's entire track history